Terminal Aerodrome Forecast
Issued by NWS Portland, OR

Current Version | Previous Version | Text Only | Print | Product List | Glossary On
Versions: 1 2 3 4 5 6 7 8 9 10 11 12 13
000
FTUS46 KPQR 042326
TAFEUG
TAF
KEUG 042326Z 0500/0524 01008KT P6SM VCSH SCT015 BKN035 OVC080
     FM050300 32007KT P6SM VCSH SCT015 BKN035 OVC080
     FM050600 32004KT P6SM VCSH BKN025 OVC045
     FM051000 34005KT P6SM VCSH OVC020
     FM051900 34012KT P6SM VCSH SCT025 BKN035=

USA.gov is the U.S. government's official web portal to all federal, state and local government web resources and services.